createdAt,value
2023-02-09T00:01:40.270Z,7.30
2023-02-09T00:04:12.216Z,7.43
2023-02-09T00:06:44.478Z,7.03
2023-02-09T00:09:17.095Z,7.27
2023-02-09T00:12:07.776Z,7.97
2023-02-09T00:14:39.835Z,7.87
2023-02-09T00:17:12.128Z,7.63
2023-02-09T00:19:44.077Z,7.27
2023-02-09T00:22:15.950Z,7.60
2023-02-09T00:24:47.923Z,7.73
2023-02-09T00:27:20.001Z,7.57
2023-02-09T00:29:51.958Z,7.47
2023-02-09T00:32:23.932Z,7.60
2023-02-09T00:34:55.824Z,7.43
2023-02-09T00:37:27.779Z,7.30
2023-02-09T00:39:59.753Z,7.60
2023-02-09T00:42:31.689Z,7.80
2023-02-09T00:45:03.968Z,7.60
2023-02-09T00:47:35.932Z,7.60
2023-02-09T00:50:09.353Z,6.60
2023-02-09T00:52:41.301Z,6.83
2023-02-09T00:55:13.259Z,7.13
2023-02-09T00:57:45.365Z,7.77
2023-02-09T01:00:18.000Z,7.00
2023-02-09T01:02:50.062Z,6.83
2023-02-09T01:05:22.212Z,6.70
2023-02-09T01:07:54.170Z,7.10
2023-02-09T01:10:26.147Z,7.20
2023-02-09T01:12:58.128Z,7.07
2023-02-09T01:15:30.142Z,7.00
2023-02-09T01:18:02.221Z,7.13
2023-02-09T01:20:34.621Z,7.07
2023-02-09T01:23:06.529Z,6.63
2023-02-09T01:25:38.467Z,7.10
2023-02-09T01:28:10.414Z,7.13
2023-02-09T01:30:42.438Z,6.57
2023-02-09T01:33:14.459Z,7.30
2023-02-09T01:35:46.701Z,6.90
2023-02-09T01:38:18.624Z,6.60
2023-02-09T01:40:51.387Z,6.80
2023-02-09T01:43:23.350Z,6.67
2023-02-09T01:45:55.676Z,6.40
2023-02-09T01:48:31.181Z,5.97
2023-02-09T01:51:03.314Z,6.43
2023-02-09T01:53:35.392Z,6.20
2023-02-09T01:56:20.527Z,6.37
2023-02-09T01:58:52.846Z,6.50
2023-02-09T02:01:25.525Z,6.10
2023-02-09T02:03:57.733Z,6.17
2023-02-09T02:06:30.376Z,5.50
2023-02-09T02:09:13.349Z,6.20
2023-02-09T02:11:48.033Z,6.07
2023-02-09T02:14:35.515Z,5.83
2023-02-09T02:17:22.615Z,6.13
2023-02-09T02:20:47.833Z,6.43
2023-02-09T02:23:44.632Z,5.57
2023-02-09T02:26:58.190Z,5.50
2023-02-09T02:30:10.795Z,5.33
2023-02-09T02:33:06.727Z,6.10
2023-02-09T02:35:58.785Z,5.90
2023-02-09T02:38:43.810Z,6.03
2023-02-09T02:41:55.436Z,6.03
2023-02-09T02:44:30.400Z,5.67
2023-02-09T02:47:07.468Z,5.53
2023-02-09T02:50:10.677Z,5.57
2023-02-09T02:52:48.196Z,5.97
2023-02-09T02:55:27.646Z,5.50
2023-02-09T02:58:06.210Z,6.03
2023-02-09T03:00:51.148Z,5.87
2023-02-09T03:03:31.617Z,5.90
2023-02-09T03:06:06.474Z,5.27
2023-02-09T03:08:57.865Z,5.10
2023-02-09T03:11:39.538Z,5.90
2023-02-09T03:14:30.165Z,5.60
2023-02-09T03:17:38.691Z,5.60
2023-02-09T03:20:47.105Z,5.13
2023-02-09T03:23:40.952Z,5.47
2023-02-09T03:26:25.283Z,5.30
2023-02-09T03:29:00.171Z,5.43
2023-02-09T03:31:33.014Z,5.10
2023-02-09T03:34:06.674Z,5.73
2023-02-09T03:36:41.665Z,5.33
2023-02-09T03:39:13.551Z,5.00
2023-02-09T03:41:45.690Z,4.97
2023-02-09T03:44:26.550Z,4.90
2023-02-09T03:47:05.020Z,5.27
2023-02-09T03:49:40.411Z,5.53
2023-02-09T03:52:15.007Z,5.13
2023-02-09T03:54:47.873Z,4.80
2023-02-09T03:57:19.802Z,4.90
2023-02-09T03:59:51.874Z,5.07
2023-02-09T04:02:23.961Z,4.97
2023-02-09T04:04:55.930Z,5.00
2023-02-09T04:07:27.909Z,5.20
2023-02-09T04:09:59.847Z,5.03
2023-02-09T04:12:32.073Z,5.33
2023-02-09T04:15:04.342Z,4.90
2023-02-09T04:17:36.251Z,5.23
2023-02-09T04:20:08.682Z,5.47
2023-02-09T04:22:40.650Z,5.30
2023-02-09T04:25:12.531Z,5.33
2023-02-09T04:27:44.435Z,5.33
2023-02-09T04:30:16.430Z,5.90
2023-02-09T04:32:48.377Z,5.43
2023-02-09T04:35:20.444Z,5.50
2023-02-09T04:37:52.443Z,5.60
2023-02-09T04:40:24.375Z,5.50
2023-02-09T04:42:56.289Z,5.20
2023-02-09T04:45:28.292Z,5.70
2023-02-09T04:48:00.218Z,5.73
2023-02-09T04:50:33.028Z,5.57
2023-02-09T04:53:05.189Z,5.50
2023-02-09T04:55:43.692Z,5.27
2023-02-09T04:58:36.881Z,5.43
2023-02-09T05:01:14.909Z,5.63
2023-02-09T05:03:47.153Z,5.73
2023-02-09T05:06:19.924Z,5.20
2023-02-09T05:08:51.945Z,5.50
2023-02-09T05:11:25.585Z,5.97
2023-02-09T05:13:57.645Z,5.60
2023-02-09T05:16:29.692Z,5.10
2023-02-09T05:19:01.690Z,5.67
2023-02-09T05:21:33.604Z,5.57
2023-02-09T05:24:06.077Z,5.63
2023-02-09T05:26:38.341Z,6.17
2023-02-09T05:29:10.272Z,5.53
2023-02-09T05:31:42.459Z,5.73
2023-02-09T05:34:14.552Z,5.77
2023-02-09T05:36:47.816Z,6.00
2023-02-09T05:39:19.801Z,6.00
2023-02-09T05:42:10.132Z,5.67
2023-02-09T05:44:48.545Z,6.20
2023-02-09T05:47:24.705Z,6.10
2023-02-09T05:49:57.002Z,6.30
2023-02-09T05:52:29.097Z,5.53
2023-02-09T05:55:01.138Z,5.97
2023-02-09T05:57:33.310Z,5.77
2023-02-09T06:00:06.986Z,5.50
2023-02-09T06:02:39.031Z,6.30
2023-02-09T06:05:11.097Z,5.83
2023-02-09T06:07:43.037Z,6.20
2023-02-09T06:10:15.152Z,5.80
2023-02-09T06:12:47.693Z,5.77
2023-02-09T06:15:19.768Z,5.60
2023-02-09T06:17:51.706Z,6.47
2023-02-09T06:20:23.638Z,6.27
2023-02-09T06:22:55.638Z,6.37
2023-02-09T06:25:27.552Z,6.20
2023-02-09T06:27:59.575Z,6.53
2023-02-09T06:30:32.967Z,6.27
2023-02-09T06:33:04.955Z,6.10
2023-02-09T06:35:36.905Z,6.20
2023-02-09T06:38:08.797Z,5.97
2023-02-09T06:40:40.913Z,6.80
2023-02-09T06:43:13.252Z,7.47
2023-02-09T06:45:45.380Z,6.57
2023-02-09T06:48:17.319Z,7.43
2023-02-09T06:50:49.575Z,6.67
2023-02-09T06:53:21.690Z,8.10
2023-02-09T06:56:00.405Z,6.83
2023-02-09T06:58:32.831Z,7.13
2023-02-09T07:01:08.571Z,7.03
2023-02-09T07:03:40.553Z,7.47
2023-02-09T07:06:16.856Z,6.80
2023-02-09T07:08:50.463Z,6.80
2023-02-09T07:11:22.357Z,6.53
2023-02-09T07:13:54.332Z,6.70
2023-02-09T07:16:26.396Z,7.40
2023-02-09T07:19:00.521Z,6.97
2023-02-09T07:21:32.482Z,7.03
2023-02-09T07:24:05.126Z,6.43
2023-02-09T07:26:37.168Z,6.97
2023-02-09T07:29:09.649Z,6.70
2023-02-09T07:31:42.641Z,7.50
2023-02-09T07:34:16.713Z,6.90
2023-02-09T07:36:49.016Z,6.90
2023-02-09T07:39:21.093Z,6.90
2023-02-09T07:41:53.654Z,7.30
2023-02-09T07:44:26.107Z,7.43
2023-02-09T07:46:58.058Z,6.73
2023-02-09T07:49:29.977Z,7.30
2023-02-09T07:52:02.075Z,7.30
2023-02-09T07:54:34.027Z,7.30
2023-02-09T07:57:06.020Z,7.60
2023-02-09T07:59:38.130Z,7.57
2023-02-09T08:02:26.483Z,7.47
2023-02-09T08:05:00.744Z,7.60
2023-02-09T08:07:32.971Z,7.50
2023-02-09T08:10:05.430Z,7.83
2023-02-09T08:12:57.555Z,7.63
2023-02-09T08:15:43.193Z,7.40
2023-02-09T08:18:24.258Z,7.50
2023-02-09T08:20:56.250Z,7.27
2023-02-09T08:23:35.199Z,8.03
2023-02-09T08:26:12.539Z,7.47
2023-02-09T08:28:45.633Z,7.20
2023-02-09T08:31:20.529Z,8.20
2023-02-09T08:33:52.855Z,7.90
2023-02-09T08:36:24.803Z,7.97
2023-02-09T08:38:56.762Z,8.17
2023-02-09T08:41:28.700Z,7.77
2023-02-09T08:44:00.637Z,8.23
2023-02-09T08:46:35.907Z,7.90
2023-02-09T08:49:07.952Z,7.63
2023-02-09T08:51:39.993Z,8.33
2023-02-09T08:54:11.940Z,8.40
2023-02-09T08:56:44.248Z,8.43
2023-02-09T08:59:17.848Z,8.10
2023-02-09T09:01:51.263Z,8.03
2023-02-09T09:04:23.279Z,8.90
2023-02-09T09:06:55.403Z,8.43
2023-02-09T09:09:27.615Z,8.20
2023-02-09T09:11:59.675Z,8.17
2023-02-09T09:14:31.982Z,8.33
2023-02-09T09:17:04.157Z,8.50
2023-02-09T09:19:36.278Z,8.87
2023-02-09T09:22:08.224Z,8.53
2023-02-09T09:24:42.728Z,8.43
2023-02-09T09:27:15.144Z,8.33
2023-02-09T09:29:47.198Z,8.47
2023-02-09T09:32:24.696Z,8.23
2023-02-09T09:34:59.208Z,7.90
2023-02-09T09:37:32.499Z,8.63
2023-02-09T09:40:05.013Z,7.80
2023-02-09T09:42:43.281Z,8.57
2023-02-09T09:45:20.857Z,8.53
2023-02-09T09:47:53.543Z,8.40
2023-02-09T09:50:32.356Z,9.23
2023-02-09T09:53:33.335Z,8.20
2023-02-09T09:56:09.786Z,8.83
2023-02-09T09:58:44.720Z,8.23
2023-02-09T10:01:20.692Z,7.57
2023-02-09T10:03:53.375Z,8.57
2023-02-09T10:06:25.336Z,8.53
2023-02-09T10:09:23.111Z,8.57
2023-02-09T10:12:38.848Z,8.67
2023-02-09T10:15:34.234Z,8.10
2023-02-09T10:18:17.001Z,8.20
2023-02-09T10:20:56.563Z,8.67
2023-02-09T10:23:43.448Z,8.40
2023-02-09T10:26:22.699Z,8.40
2023-02-09T10:29:20.019Z,8.70
2023-02-09T10:32:12.378Z,8.40
2023-02-09T10:34:54.463Z,8.90
2023-02-09T10:37:38.885Z,9.07
2023-02-09T10:40:33.141Z,9.03
2023-02-09T10:43:24.051Z,9.03
2023-02-09T10:46:01.174Z,8.40
2023-02-09T10:48:43.723Z,8.47
2023-02-09T10:51:29.780Z,8.57
2023-02-09T10:54:19.090Z,8.97
2023-02-09T10:56:51.079Z,9.00
2023-02-09T10:59:25.972Z,8.80
2023-02-09T11:02:02.060Z,9.83
2023-02-09T11:04:41.472Z,9.27
2023-02-09T11:07:19.925Z,9.27
2023-02-09T11:09:53.180Z,9.10
2023-02-09T11:12:26.154Z,8.83
2023-02-09T11:14:58.132Z,9.47
2023-02-09T11:17:45.681Z,8.90
2023-02-09T11:20:36.238Z,10.07
2023-02-09T11:23:41.162Z,9.87
2023-02-09T11:26:43.209Z,10.20
2023-02-09T11:29:36.317Z,9.30
2023-02-09T11:32:46.772Z,9.57
2023-02-09T11:35:25.243Z,10.70
2023-02-09T11:38:09.117Z,10.00
2023-02-09T11:40:55.827Z,11.20
2023-02-09T11:43:38.058Z,9.90
2023-02-09T11:46:18.837Z,11.07
2023-02-09T11:49:00.463Z,10.53
2023-02-09T11:51:39.643Z,10.93
2023-02-09T11:54:18.665Z,10.87
2023-02-09T11:56:59.930Z,10.73
2023-02-09T11:59:45.489Z,10.73
2023-02-09T12:02:52.150Z,11.40
2023-02-09T12:05:26.047Z,11.37
2023-02-09T12:08:22.430Z,11.50
2023-02-09T12:11:26.623Z,11.67
2023-02-09T12:14:36.401Z,11.63
2023-02-09T12:17:24.686Z,12.43
2023-02-09T12:20:00.601Z,12.57
2023-02-09T12:22:50.617Z,12.67
2023-02-09T12:25:51.103Z,12.77
2023-02-09T12:28:34.890Z,12.93
2023-02-09T12:31:23.587Z,12.53
2023-02-09T12:33:58.311Z,12.10
2023-02-09T12:36:35.142Z,12.83
2023-02-09T12:39:28.639Z,13.93
2023-02-09T12:42:03.550Z,13.50
2023-02-09T12:44:37.825Z,12.93
2023-02-09T12:47:44.327Z,13.87
2023-02-09T12:50:33.860Z,14.17
2023-02-09T12:53:23.972Z,12.93
2023-02-09T12:56:09.129Z,12.90
2023-02-09T12:58:49.689Z,13.03
2023-02-09T13:01:21.829Z,13.43
2023-02-09T13:04:07.775Z,13.13
2023-02-09T13:06:56.295Z,13.83
2023-02-09T13:09:39.249Z,14.40
2023-02-09T13:12:21.279Z,14.23
2023-02-09T13:14:53.240Z,14.10
2023-02-09T13:17:41.852Z,14.13
2023-02-09T13:20:57.512Z,14.33
2023-02-09T13:24:11.430Z,14.47
2023-02-09T13:26:57.688Z,14.80
2023-02-09T13:29:33.026Z,14.97
2023-02-09T13:32:17.222Z,15.20
2023-02-09T13:35:20.159Z,14.73
2023-02-09T13:37:59.616Z,15.50
2023-02-09T13:40:35.156Z,14.70
2023-02-09T13:43:17.349Z,14.47
2023-02-09T13:45:55.896Z,14.43
2023-02-09T13:48:39.601Z,14.73
2023-02-09T13:51:19.141Z,15.47
2023-02-09T13:54:02.828Z,15.63
2023-02-09T13:56:39.549Z,17.10
2023-02-09T13:59:17.676Z,16.17
2023-02-09T14:01:49.933Z,16.93
2023-02-09T14:04:29.975Z,15.80
2023-02-09T14:07:09.977Z,16.40
2023-02-09T14:09:49.376Z,16.03
2023-02-09T14:12:52.375Z,16.07
2023-02-09T14:15:55.428Z,16.10
2023-02-09T14:18:54.457Z,15.03
2023-02-09T14:21:43.065Z,15.47
2023-02-09T14:24:27.838Z,16.13
2023-02-09T14:27:22.501Z,16.30
2023-02-09T14:29:55.952Z,15.80
2023-02-09T14:32:38.359Z,16.23
2023-02-09T14:35:19.867Z,15.77
2023-02-09T14:37:56.994Z,16.77
2023-02-09T14:40:34.308Z,15.77
2023-02-09T14:43:09.307Z,16.37
2023-02-09T14:45:58.754Z,15.97
2023-02-09T14:48:31.544Z,15.47
2023-02-09T14:51:15.674Z,15.97
2023-02-09T14:53:47.647Z,15.97
2023-02-09T14:56:30.354Z,15.93
2023-02-09T14:59:02.322Z,15.30
2023-02-09T15:01:34.305Z,19.00
2023-02-09T15:04:06.274Z,18.57
2023-02-09T15:06:41.115Z,16.83
2023-02-09T15:09:29.253Z,16.93
2023-02-09T15:12:07.446Z,16.90
2023-02-09T15:14:47.211Z,16.07
2023-02-09T15:17:25.524Z,16.33
2023-02-09T15:19:59.200Z,16.47
2023-02-09T15:22:31.451Z,15.93
2023-02-09T15:25:03.390Z,16.77
2023-02-09T15:27:42.344Z,16.37
2023-02-09T15:30:25.739Z,16.47
2023-02-09T15:32:57.671Z,17.03
2023-02-09T15:35:30.067Z,16.67
2023-02-09T15:38:02.560Z,15.87
2023-02-09T15:41:16.853Z,16.17
2023-02-09T15:44:07.621Z,15.70
2023-02-09T15:46:58.007Z,16.47
2023-02-09T15:49:31.014Z,16.03
2023-02-09T15:52:02.955Z,15.43
2023-02-09T15:54:35.181Z,17.47
2023-02-09T15:57:15.150Z,15.87
2023-02-09T15:59:48.303Z,17.40
2023-02-09T16:02:20.493Z,16.83
2023-02-09T16:04:52.397Z,17.23
2023-02-09T16:07:26.440Z,17.03
2023-02-09T16:09:58.490Z,17.30
2023-02-09T16:12:30.570Z,17.70
2023-02-09T16:15:02.522Z,17.60
2023-02-09T16:17:34.478Z,16.87
2023-02-09T16:20:07.803Z,17.37
2023-02-09T16:22:44.064Z,17.50
2023-02-09T16:25:24.059Z,17.53
2023-02-09T16:27:57.948Z,17.53
2023-02-09T16:30:37.775Z,18.47
2023-02-09T16:33:09.875Z,17.87
2023-02-09T16:35:42.124Z,18.30
2023-02-09T16:38:19.473Z,21.95
2023-02-09T16:40:53.430Z,20.17
2023-02-09T16:43:25.397Z,18.73
2023-02-09T16:46:03.702Z,18.97
2023-02-09T16:48:46.581Z,17.63
2023-02-09T16:51:19.280Z,18.37
2023-02-09T16:53:52.374Z,18.00
2023-02-09T16:56:26.014Z,18.93
2023-02-09T16:58:57.932Z,18.60
2023-02-09T17:01:29.937Z,19.13
2023-02-09T17:04:07.223Z,18.73
2023-02-09T17:06:39.320Z,19.00
2023-02-09T17:09:20.391Z,19.37
2023-02-09T17:11:52.361Z,19.60
2023-02-09T17:14:24.304Z,19.30
2023-02-09T17:16:56.277Z,19.20
2023-02-09T17:19:35.728Z,20.00
2023-02-09T17:22:14.983Z,18.60
2023-02-09T17:24:48.074Z,20.23
2023-02-09T17:27:20.026Z,20.17
2023-02-09T17:29:52.032Z,19.67
2023-02-09T17:32:24.074Z,19.73
2023-02-09T17:34:56.079Z,20.00
2023-02-09T17:37:27.966Z,19.87
2023-02-09T17:39:59.925Z,20.87
2023-02-09T17:42:32.099Z,20.70
2023-02-09T17:45:04.878Z,20.80
2023-02-09T17:47:39.412Z,20.13
2023-02-09T17:50:11.480Z,20.00
2023-02-09T17:52:43.846Z,20.40
2023-02-09T17:55:27.745Z,21.43
2023-02-09T17:58:00.889Z,21.13
2023-02-09T18:00:32.946Z,21.83
2023-02-09T18:03:06.248Z,22.00
2023-02-09T18:05:40.503Z,21.67
2023-02-09T18:08:12.637Z,20.83
2023-02-09T18:10:44.722Z,21.60
2023-02-09T18:13:19.854Z,21.33
2023-02-09T18:15:52.330Z,21.03
2023-02-09T18:18:24.627Z,21.37
2023-02-09T18:20:56.644Z,25.50
2023-02-09T18:23:28.604Z,28.33
2023-02-09T18:26:00.574Z,21.97
2023-02-09T18:28:32.578Z,23.27
2023-02-09T18:31:06.471Z,22.67
2023-02-09T18:33:38.578Z,22.67
2023-02-09T18:36:10.677Z,22.87
2023-02-09T18:38:42.871Z,22.47
2023-02-09T18:41:15.240Z,21.43
2023-02-09T18:43:47.537Z,22.67
2023-02-09T18:46:19.750Z,35.30
2023-02-09T18:48:52.018Z,24.17
2023-02-09T18:51:24.423Z,22.33
2023-02-09T18:53:57.972Z,22.47
2023-02-09T18:56:30.039Z,22.40
2023-02-09T18:59:02.009Z,21.70
2023-02-09T19:01:34.951Z,22.57
2023-02-09T19:04:07.795Z,20.93
2023-02-09T19:06:39.788Z,22.60
2023-02-09T19:09:11.771Z,21.50
2023-02-09T19:11:43.866Z,22.80
2023-02-09T19:14:34.109Z,21.90
2023-02-09T19:17:09.526Z,20.67
2023-02-09T19:19:42.029Z,21.60
2023-02-09T19:22:17.615Z,22.23
2023-02-09T19:24:51.272Z,23.00
2023-02-09T19:27:27.569Z,22.83
2023-02-09T19:29:59.564Z,22.33
2023-02-09T19:32:31.791Z,23.37
2023-02-09T19:35:04.786Z,22.83
2023-02-09T19:37:37.552Z,21.97
2023-02-09T19:40:21.277Z,22.53
2023-02-09T19:42:54.130Z,22.37
2023-02-09T19:45:26.098Z,22.73
2023-02-09T19:47:58.337Z,22.37
2023-02-09T19:50:30.289Z,21.60
2023-02-09T19:53:02.941Z,22.80
2023-02-09T19:55:35.450Z,22.87
2023-02-09T19:58:07.361Z,24.87
2023-02-09T20:00:39.305Z,23.17
2023-02-09T20:03:14.834Z,22.73
2023-02-09T20:05:47.293Z,23.20
2023-02-09T20:08:20.663Z,22.53
2023-02-09T20:10:52.609Z,23.47
2023-02-09T20:13:24.628Z,22.33
2023-02-09T20:15:56.889Z,22.97
2023-02-09T20:18:28.904Z,23.60
2023-02-09T20:21:00.860Z,22.27
2023-02-09T20:23:32.897Z,23.73
2023-02-09T20:26:22.794Z,22.37
2023-02-09T20:28:57.209Z,22.97
2023-02-09T20:31:34.796Z,22.40
2023-02-09T20:34:10.217Z,23.47
2023-02-09T20:36:45.002Z,23.67
2023-02-09T20:39:17.929Z,23.27
2023-02-09T20:42:14.251Z,23.90
2023-02-09T20:45:05.051Z,23.90
2023-02-09T20:47:37.031Z,24.67
2023-02-09T20:50:09.654Z,23.37
2023-02-09T20:52:41.579Z,23.83
2023-02-09T20:55:13.807Z,24.07
2023-02-09T20:57:45.740Z,24.03
2023-02-09T21:00:18.096Z,24.33
2023-02-09T21:02:50.138Z,24.70
2023-02-09T21:05:22.221Z,24.63
2023-02-09T21:07:54.346Z,23.67
2023-02-09T21:10:26.362Z,23.70
2023-02-09T21:12:58.335Z,23.37
2023-02-09T21:15:30.342Z,25.20
2023-02-09T21:18:02.468Z,24.80
2023-02-09T21:20:35.235Z,25.90
2023-02-09T21:23:07.188Z,24.63
2023-02-09T21:25:39.145Z,24.50
2023-02-09T21:28:12.272Z,24.97
2023-02-09T21:30:44.892Z,25.33
2023-02-09T21:33:16.858Z,24.13
2023-02-09T21:35:48.800Z,25.90
2023-02-09T21:38:20.717Z,25.10
2023-02-09T21:40:52.706Z,24.30
2023-02-09T21:43:24.851Z,25.40
2023-02-09T21:45:56.813Z,26.53
2023-02-09T21:48:28.770Z,26.10
2023-02-09T21:51:01.592Z,36.65
2023-02-09T21:53:33.657Z,30.63
2023-02-09T21:56:08.923Z,28.20
2023-02-09T21:58:41.420Z,27.27
2023-02-09T22:01:13.964Z,26.87
2023-02-09T22:03:49.904Z,28.03
2023-02-09T22:06:21.898Z,25.10
2023-02-09T22:08:54.123Z,25.47
2023-02-09T22:11:26.091Z,24.60
2023-02-09T22:13:58.025Z,25.10
2023-02-09T22:16:30.697Z,26.43
2023-02-09T22:19:02.811Z,26.13
2023-02-09T22:21:34.787Z,25.20
2023-02-09T22:24:06.862Z,24.70
2023-02-09T22:26:40.741Z,26.13
2023-02-09T22:29:15.429Z,25.27
2023-02-09T22:31:47.947Z,26.13
2023-02-09T22:34:19.854Z,24.97
2023-02-09T22:36:53.663Z,24.90
2023-02-09T22:39:25.618Z,25.00
2023-02-09T22:42:00.836Z,25.10
2023-02-09T22:44:33.494Z,25.57
2023-02-09T22:47:05.419Z,24.80
2023-02-09T22:49:37.380Z,25.67
2023-02-09T22:52:09.353Z,25.37
2023-02-09T22:54:41.255Z,25.37
2023-02-09T22:57:13.241Z,25.60
2023-02-09T22:59:45.355Z,25.13
2023-02-09T23:02:17.634Z,25.63
2023-02-09T23:04:49.585Z,24.73
2023-02-09T23:07:21.520Z,24.07
2023-02-09T23:09:53.840Z,24.03
2023-02-09T23:12:25.860Z,24.90
2023-02-09T23:14:57.812Z,24.17
2023-02-09T23:17:29.801Z,24.03
2023-02-09T23:20:01.783Z,24.20
2023-02-09T23:22:33.977Z,25.13
2023-02-09T23:25:06.437Z,24.97
2023-02-09T23:27:38.406Z,25.10
2023-02-09T23:30:11.148Z,23.67
2023-02-09T23:32:43.090Z,25.07
2023-02-09T23:35:17.521Z,23.53
2023-02-09T23:37:49.508Z,25.17
2023-02-09T23:40:21.418Z,24.57
2023-02-09T23:42:53.316Z,24.83
2023-02-09T23:45:25.517Z,25.37
2023-02-09T23:47:57.533Z,25.57
2023-02-09T23:50:29.518Z,25.97
2023-02-09T23:53:01.447Z,25.67
2023-02-09T23:55:33.470Z,24.13
2023-02-09T23:58:05.390Z,24.53
